sensor_id;sensor_type;location;lat;lon;timestamp;pressure;altitude;pressure_sealevel;temperature;humidity
15694;BME280;7947;48.834;9.132;2023-02-02T00:00:27;98802.22;;;6.52;74.68
15694;BME280;7947;48.834;9.132;2023-02-02T00:03:34;98799.31;;;6.42;75.19
15694;BME280;7947;48.834;9.132;2023-02-02T00:06:42;98791.56;;;6.52;74.98
15694;BME280;7947;48.834;9.132;2023-02-02T00:09:49;98802.44;;;6.51;75.21
15694;BME280;7947;48.834;9.132;2023-02-02T00:12:55;98791.09;;;6.55;75.21
15694;BME280;7947;48.834;9.132;2023-02-02T00:16:38;98780.91;;;6.52;75.35
15694;BME280;7947;48.834;9.132;2023-02-02T00:19:47;98781.69;;;6.53;75.76
15694;BME280;7947;48.834;9.132;2023-02-02T00:22:55;98784.34;;;6.53;75.52
15694;BME280;7947;48.834;9.132;2023-02-02T00:26:04;98797.81;;;6.58;75.45
15694;BME280;7947;48.834;9.132;2023-02-02T00:29:14;98798.84;;;6.45;75.95
15694;BME280;7947;48.834;9.132;2023-02-02T00:32:26;98805.00;;;6.46;76.38
15694;BME280;7947;48.834;9.132;2023-02-02T00:35:38;98796.88;;;6.52;75.88
15694;BME280;7947;48.834;9.132;2023-02-02T00:38:45;98798.84;;;6.57;75.54
15694;BME280;7947;48.834;9.132;2023-02-02T00:41:53;98796.66;;;6.54;76.05
15694;BME280;7947;48.834;9.132;2023-02-02T00:45:01;98796.75;;;6.47;76.41
15694;BME280;7947;48.834;9.132;2023-02-02T00:48:22;98784.59;;;6.51;76.31
15694;BME280;7947;48.834;9.132;2023-02-02T00:51:34;98787.16;;;6.58;75.95
15694;BME280;7947;48.834;9.132;2023-02-02T00:54:40;98795.16;;;6.58;75.99
15694;BME280;7947;48.834;9.132;2023-02-02T00:57:47;98790.75;;;6.63;75.75
15694;BME280;7947;48.834;9.132;2023-02-02T01:00:53;98785.06;;;6.60;76.23
15694;BME280;7947;48.834;9.132;2023-02-02T01:03:59;98791.66;;;6.57;76.35
15694;BME280;7947;48.834;9.132;2023-02-02T01:07:08;98777.28;;;6.58;76.61
15694;BME280;7947;48.834;9.132;2023-02-02T01:10:18;98793.97;;;6.65;76.13
15694;BME280;7947;48.834;9.132;2023-02-02T01:13:24;98786.09;;;6.59;76.70
15694;BME280;7947;48.834;9.132;2023-02-02T01:16:30;98790.84;;;6.57;77.17
15694;BME280;7947;48.834;9.132;2023-02-02T01:19:37;98792.25;;;6.59;77.05
15694;BME280;7947;48.834;9.132;2023-02-02T01:22:47;98787.59;;;6.55;77.80
15694;BME280;7947;48.834;9.132;2023-02-02T01:26:00;98798.72;;;6.63;77.71
15694;BME280;7947;48.834;9.132;2023-02-02T01:29:07;98804.66;;;6.54;78.72
15694;BME280;7947;48.834;9.132;2023-02-02T01:32:14;98807.75;;;6.51;78.83
15694;BME280;7947;48.834;9.132;2023-02-02T01:35:22;98804.66;;;6.54;78.61
15694;BME280;7947;48.834;9.132;2023-02-02T01:38:32;98805.09;;;6.51;79.01
15694;BME280;7947;48.834;9.132;2023-02-02T01:41:39;98819.56;;;6.43;79.75
15694;BME280;7947;48.834;9.132;2023-02-02T01:45:20;98808.69;;;6.45;81.03
15694;BME280;7947;48.834;9.132;2023-02-02T01:48:32;98800.25;;;6.48;80.95
15694;BME280;7947;48.834;9.132;2023-02-02T01:51:42;98805.91;;;6.39;80.71
15694;BME280;7947;48.834;9.132;2023-02-02T01:54:52;98815.16;;;6.37;81.05
15694;BME280;7947;48.834;9.132;2023-02-02T01:58:04;98812.88;;;6.41;81.27
15694;BME280;7947;48.834;9.132;2023-02-02T02:01:12;98803.81;;;6.42;81.20
15694;BME280;7947;48.834;9.132;2023-02-02T02:04:25;98812.97;;;6.46;81.03
15694;BME280;7947;48.834;9.132;2023-02-02T02:07:32;98802.56;;;6.44;81.07
15694;BME280;7947;48.834;9.132;2023-02-02T02:14:20;98782.28;;;6.43;81.46
15694;BME280;7947;48.834;9.132;2023-02-02T02:17:57;98798.50;;;6.42;82.10
15694;BME280;7947;48.834;9.132;2023-02-02T02:25:13;98805.47;;;6.43;82.20
15694;BME280;7947;48.834;9.132;2023-02-02T02:29:02;98794.91;;;6.48;82.03
15694;BME280;7947;48.834;9.132;2023-02-02T02:32:26;98795.00;;;6.53;81.15
15694;BME280;7947;48.834;9.132;2023-02-02T02:35:40;98800.47;;;6.46;82.02
15694;BME280;7947;48.834;9.132;2023-02-02T02:38:53;98794.09;;;6.47;81.63
15694;BME280;7947;48.834;9.132;2023-02-02T02:42:08;98791.31;;;6.42;81.79
15694;BME280;7947;48.834;9.132;2023-02-02T02:45:18;98799.19;;;6.49;82.29
15694;BME280;7947;48.834;9.132;2023-02-02T02:48:40;98801.97;;;6.42;82.52
15694;BME280;7947;48.834;9.132;2023-02-02T02:51:49;98799.06;;;6.44;82.26
15694;BME280;7947;48.834;9.132;2023-02-02T02:54:57;98800.94;;;6.43;82.89
15694;BME280;7947;48.834;9.132;2023-02-02T02:58:11;98804.66;;;6.42;83.10
15694;BME280;7947;48.834;9.132;2023-02-02T03:01:23;98807.53;;;6.41;82.92
15694;BME280;7947;48.834;9.132;2023-02-02T03:04:39;98805.09;;;6.39;83.16
15694;BME280;7947;48.834;9.132;2023-02-02T03:07:54;98817.16;;;6.42;82.81
15694;BME280;7947;48.834;9.132;2023-02-02T03:11:14;98807.31;;;6.42;82.93
15694;BME280;7947;48.834;9.132;2023-02-02T03:14:25;98797.00;;;6.46;83.17
15694;BME280;7947;48.834;9.132;2023-02-02T03:17:33;98806.84;;;6.45;82.75
15694;BME280;7947;48.834;9.132;2023-02-02T03:20:46;98798.41;;;6.48;82.65
15694;BME280;7947;48.834;9.132;2023-02-02T03:24:00;98813.09;;;6.51;82.10
15694;BME280;7947;48.834;9.132;2023-02-02T03:27:07;98800.59;;;6.51;82.95
15694;BME280;7947;48.834;9.132;2023-02-02T03:30:24;98788.75;;;6.59;82.02
15694;BME280;7947;48.834;9.132;2023-02-02T03:33:31;98793.66;;;6.50;82.13
15694;BME280;7947;48.834;9.132;2023-02-02T03:36:43;98789.94;;;6.51;82.46
15694;BME280;7947;48.834;9.132;2023-02-02T03:39:52;98790.97;;;6.50;82.58
15694;BME280;7947;48.834;9.132;2023-02-02T03:43:01;98809.41;;;6.52;82.81
15694;BME280;7947;48.834;9.132;2023-02-02T03:46:07;98796.75;;;6.47;82.61
15694;BME280;7947;48.834;9.132;2023-02-02T03:49:15;98794.56;;;6.44;82.46
15694;BME280;7947;48.834;9.132;2023-02-02T03:52:27;98806.84;;;6.45;82.74
15694;BME280;7947;48.834;9.132;2023-02-02T03:55:33;98811.91;;;6.47;82.73
15694;BME280;7947;48.834;9.132;2023-02-02T03:58:42;98804.50;;;6.49;82.98
15694;BME280;7947;48.834;9.132;2023-02-02T04:01:52;98816.91;;;6.43;82.62
15694;BME280;7947;48.834;9.132;2023-02-02T04:04:58;98809.06;;;6.48;83.18
15694;BME280;7947;48.834;9.132;2023-02-02T04:08:09;98816.47;;;6.46;82.80
15694;BME280;7947;48.834;9.132;2023-02-02T04:11:15;98813.22;;;6.44;83.37
15694;BME280;7947;48.834;9.132;2023-02-02T04:14:22;98817.03;;;6.48;83.36
15694;BME280;7947;48.834;9.132;2023-02-02T04:17:28;98824.44;;;6.46;82.63
15694;BME280;7947;48.834;9.132;2023-02-02T04:20:36;98827.31;;;6.45;83.24
15694;BME280;7947;48.834;9.132;2023-02-02T04:23:43;98832.09;;;6.54;82.85
15694;BME280;7947;48.834;9.132;2023-02-02T04:26:53;98826.19;;;6.52;82.77
15694;BME280;7947;48.834;9.132;2023-02-02T04:30:00;98836.28;;;6.50;83.34
15694;BME280;7947;48.834;9.132;2023-02-02T04:33:11;98837.66;;;6.53;83.05
15694;BME280;7947;48.834;9.132;2023-02-02T04:36:17;98840.53;;;6.51;83.09
15694;BME280;7947;48.834;9.132;2023-02-02T04:39:25;98836.72;;;6.47;83.36
15694;BME280;7947;48.834;9.132;2023-02-02T04:42:32;98834.97;;;6.53;82.46
15694;BME280;7947;48.834;9.132;2023-02-02T04:45:42;98847.84;;;6.56;82.55
15694;BME280;7947;48.834;9.132;2023-02-02T04:48:50;98856.44;;;6.58;82.13
15694;BME280;7947;48.834;9.132;2023-02-02T04:51:57;98868.13;;;6.57;82.23
15694;BME280;7947;48.834;9.132;2023-02-02T04:55:07;98857.47;;;6.57;82.20
15694;BME280;7947;48.834;9.132;2023-02-02T04:58:14;98870.53;;;6.58;82.66
15694;BME280;7947;48.834;9.132;2023-02-02T05:01:24;98855.03;;;6.55;82.42
15694;BME280;7947;48.834;9.132;2023-02-02T05:04:32;98855.50;;;6.52;82.02
15694;BME280;7947;48.834;9.132;2023-02-02T05:07:38;98856.28;;;6.53;82.46
15694;BME280;7947;48.834;9.132;2023-02-02T05:10:47;98871.25;;;6.54;82.32
15694;BME280;7947;48.834;9.132;2023-02-02T05:14:00;98871.25;;;6.54;82.33
15694;BME280;7947;48.834;9.132;2023-02-02T05:17:20;98869.41;;;6.54;82.88
15694;BME280;7947;48.834;9.132;2023-02-02T05:20:26;98874.50;;;6.56;82.48
15694;BME280;7947;48.834;9.132;2023-02-02T05:23:33;98877.84;;;6.51;82.42
15694;BME280;7947;48.834;9.132;2023-02-02T05:26:41;98884.00;;;6.63;81.88
15694;BME280;7947;48.834;9.132;2023-02-02T05:29:47;98869.50;;;6.59;82.81
15694;BME280;7947;48.834;9.132;2023-02-02T05:32:54;98875.75;;;6.53;82.38
15694;BME280;7947;48.834;9.132;2023-02-02T05:36:01;98877.75;;;6.58;82.79
15694;BME280;7947;48.834;9.132;2023-02-02T05:39:10;98874.59;;;6.61;82.44
15694;BME280;7947;48.834;9.132;2023-02-02T05:42:19;98875.88;;;6.70;82.45
15694;BME280;7947;48.834;9.132;2023-02-02T05:45:26;98881.34;;;6.63;82.56
15694;BME280;7947;48.834;9.132;2023-02-02T05:48:36;98872.28;;;6.64;82.08
15694;BME280;7947;48.834;9.132;2023-02-02T05:51:48;98870.34;;;6.60;82.71
15694;BME280;7947;48.834;9.132;2023-02-02T05:54:57;98887.59;;;6.57;82.50
15694;BME280;7947;48.834;9.132;2023-02-02T05:58:06;98880.19;;;6.59;82.02
15694;BME280;7947;48.834;9.132;2023-02-02T06:01:16;98874.50;;;6.56;83.02
15694;BME280;7947;48.834;9.132;2023-02-02T06:04:26;98868.00;;;6.63;82.13
15694;BME280;7947;48.834;9.132;2023-02-02T06:07:33;98865.44;;;6.57;83.05
15694;BME280;7947;48.834;9.132;2023-02-02T06:10:39;98877.16;;;6.56;82.99
15694;BME280;7947;48.834;9.132;2023-02-02T06:13:47;98879.69;;;6.62;82.71
15694;BME280;7947;48.834;9.132;2023-02-02T06:16:55;98883.88;;;6.58;82.49
15694;BME280;7947;48.834;9.132;2023-02-02T06:20:04;98895.00;;;6.67;82.37
15694;BME280;7947;48.834;9.132;2023-02-02T06:23:11;98890.34;;;6.62;82.64
15694;BME280;7947;48.834;9.132;2023-02-02T06:26:39;98899.53;;;6.66;82.98
15694;BME280;7947;48.834;9.132;2023-02-02T06:53:19;98919.91;;;6.72;82.42
15694;BME280;7947;48.834;9.132;2023-02-02T06:57:33;98926.50;;;6.70;82.73
15694;BME280;7947;48.834;9.132;2023-02-02T07:01:59;98924.09;;;6.68;82.41
15694;BME280;7947;48.834;9.132;2023-02-02T08:00:47;98910.56;;;6.81;81.55
15694;BME280;7947;48.834;9.132;2023-02-02T08:04:42;98905.69;;;6.78;81.59
15694;BME280;7947;48.834;9.132;2023-02-02T09:01:49;99010.25;;;7.03;80.97
15694;BME280;7947;48.834;9.132;2023-02-02T09:10:43;99013.25;;;6.95;81.31
15694;BME280;7947;48.834;9.132;2023-02-02T10:08:14;99040.25;;;6.99;83.88
15694;BME280;7947;48.834;9.132;2023-02-02T11:35:16;99035.66;;;7.75;78.26
15694;BME280;7947;48.834;9.132;2023-02-02T11:39:18;99044.84;;;7.79;79.06
15694;BME280;7947;48.834;9.132;2023-02-02T11:43:13;99043.09;;;7.73;78.35
15694;BME280;7947;48.834;9.132;2023-02-02T11:50:22;99043.09;;;7.62;78.97
15694;BME280;7947;48.834;9.132;2023-02-02T11:54:41;99040.78;;;7.54;80.25
15694;BME280;7947;48.834;9.132;2023-02-02T11:58:24;99037.53;;;7.63;80.32
15694;BME280;7947;48.834;9.132;2023-02-02T12:02:06;99030.56;;;7.62;80.77
15694;BME280;7947;48.834;9.132;2023-02-02T12:05:50;99034.88;;;7.52;78.65
15694;BME280;7947;48.834;9.132;2023-02-02T12:09:56;99049.59;;;7.43;79.12
15694;BME280;7947;48.834;9.132;2023-02-02T12:13:33;99043.00;;;7.45;80.26
15694;BME280;7947;48.834;9.132;2023-02-02T12:16:59;99044.59;;;7.35;81.89
15694;BME280;7947;48.834;9.132;2023-02-02T12:20:52;99049.03;;;7.29;82.68
15694;BME280;7947;48.834;9.132;2023-02-02T12:24:26;99045.63;;;7.22;82.59
15694;BME280;7947;48.834;9.132;2023-02-02T12:27:49;99038.44;;;7.22;82.73
15694;BME280;7947;48.834;9.132;2023-02-02T12:31:08;99051.19;;;7.20;83.25
15694;BME280;7947;48.834;9.132;2023-02-02T12:35:23;99034.38;;;7.08;83.95
15694;BME280;7947;48.834;9.132;2023-02-02T12:39:17;99039.69;;;6.97;83.62
15694;BME280;7947;48.834;9.132;2023-02-02T12:42:57;99053.47;;;6.94;85.25
15694;BME280;7947;48.834;9.132;2023-02-02T12:46:54;99054.75;;;6.91;85.47
15694;BME280;7947;48.834;9.132;2023-02-02T12:50:38;99056.81;;;6.89;86.29
15694;BME280;7947;48.834;9.132;2023-02-02T12:54:15;99050.69;;;6.89;86.08
15694;BME280;7947;48.834;9.132;2023-02-02T12:58:18;99056.22;;;6.87;85.57
15694;BME280;7947;48.834;9.132;2023-02-02T13:02:09;99059.72;;;6.88;85.84
15694;BME280;7947;48.834;9.132;2023-02-02T13:05:43;99045.81;;;6.86;85.74
15694;BME280;7947;48.834;9.132;2023-02-02T13:09:34;99051.47;;;6.78;85.89
15694;BME280;7947;48.834;9.132;2023-02-02T13:13:07;99060.03;;;6.80;86.21
15694;BME280;7947;48.834;9.132;2023-02-02T13:16:43;99040.34;;;6.81;86.06
15694;BME280;7947;48.834;9.132;2023-02-02T13:33:39;99042.25;;;7.03;85.69
15694;BME280;7947;48.834;9.132;2023-02-02T13:37:55;99043.91;;;7.04;85.26
15694;BME280;7947;48.834;9.132;2023-02-02T13:41:38;99052.47;;;7.06;85.13
15694;BME280;7947;48.834;9.132;2023-02-02T13:45:46;99057.34;;;7.09;84.90
15694;BME280;7947;48.834;9.132;2023-02-02T14:15:42;99086.22;;;7.24;82.89
15694;BME280;7947;48.834;9.132;2023-02-02T14:19:04;99086.03;;;7.25;83.23
15694;BME280;7947;48.834;9.132;2023-02-02T14:31:40;99094.97;;;7.31;81.55
15694;BME280;7947;48.834;9.132;2023-02-02T14:35:54;99095.88;;;7.37;81.14
15694;BME280;7947;48.834;9.132;2023-02-02T14:39:14;99102.13;;;7.30;81.21
15694;BME280;7947;48.834;9.132;2023-02-02T14:42:59;99102.03;;;7.37;80.88
15694;BME280;7947;48.834;9.132;2023-02-02T14:46:45;99116.75;;;7.40;80.92
15694;BME280;7947;48.834;9.132;2023-02-02T14:50:14;99108.31;;;7.43;79.90
15694;BME280;7947;48.834;9.132;2023-02-02T14:54:04;99106.91;;;7.40;80.27
15694;BME280;7947;48.834;9.132;2023-02-02T14:57:26;99116.91;;;7.45;79.94
15694;BME280;7947;48.834;9.132;2023-02-02T15:01:24;99123.50;;;7.42;79.20
15694;BME280;7947;48.834;9.132;2023-02-02T15:05:45;99120.38;;;7.45;79.02
15694;BME280;7947;48.834;9.132;2023-02-02T15:13:03;99127.00;;;7.43;79.37
15694;BME280;7947;48.834;9.132;2023-02-02T15:16:22;99126.06;;;7.37;79.93
15694;BME280;7947;48.834;9.132;2023-02-02T15:19:38;99135.81;;;7.43;79.85
15694;BME280;7947;48.834;9.132;2023-02-02T15:23:14;99133.81;;;7.39;79.76
15694;BME280;7947;48.834;9.132;2023-02-02T15:26:39;99148.78;;;7.40;79.42
15694;BME280;7947;48.834;9.132;2023-02-02T15:30:21;99155.41;;;7.37;79.22
15694;BME280;7947;48.834;9.132;2023-02-02T15:34:03;99156.66;;;7.35;80.00
15694;BME280;7947;48.834;9.132;2023-02-02T15:37:45;99164.44;;;7.36;79.46
15694;BME280;7947;48.834;9.132;2023-02-02T15:45:51;99169.50;;;7.26;80.18
15694;BME280;7947;48.834;9.132;2023-02-02T15:49:41;99173.91;;;7.20;79.57
15694;BME280;7947;48.834;9.132;2023-02-02T15:53:15;99179.81;;;7.22;80.06
15694;BME280;7947;48.834;9.132;2023-02-02T15:56:45;99173.16;;;7.32;78.98
15694;BME280;7947;48.834;9.132;2023-02-02T16:00:26;99198.25;;;7.24;78.76
15694;BME280;7947;48.834;9.132;2023-02-02T16:04:37;99195.97;;;7.27;78.90
15694;BME280;7947;48.834;9.132;2023-02-02T16:08:00;99189.16;;;7.32;78.10
15694;BME280;7947;48.834;9.132;2023-02-02T16:11:55;99195.97;;;7.27;78.22
15694;BME280;7947;48.834;9.132;2023-02-02T16:15:27;99212.94;;;7.33;78.38
15694;BME280;7947;48.834;9.132;2023-02-02T17:10:37;99327.22;;;7.18;80.11
15694;BME280;7947;48.834;9.132;2023-02-02T17:15:34;99338.09;;;7.16;80.26
15694;BME280;7947;48.834;9.132;2023-02-02T17:19:53;99335.84;;;7.20;79.94
15694;BME280;7947;48.834;9.132;2023-02-02T17:24:06;99345.69;;;7.19;80.33
15694;BME280;7947;48.834;9.132;2023-02-02T17:51:04;99363.50;;;6.83;85.21
15694;BME280;7947;48.834;9.132;2023-02-02T17:55:20;99363.28;;;6.84;84.25
15694;BME280;7947;48.834;9.132;2023-02-02T17:58:56;99372.47;;;6.88;84.09
15694;BME280;7947;48.834;9.132;2023-02-02T18:03:47;99382.41;;;6.81;83.71
15694;BME280;7947;48.834;9.132;2023-02-02T18:08:02;99385.25;;;6.80;83.46
15694;BME280;7947;48.834;9.132;2023-02-02T18:12:08;99392.63;;;6.84;83.29
15694;BME280;7947;48.834;9.132;2023-02-02T18:15:56;99378.81;;;6.87;83.44
15694;BME280;7947;48.834;9.132;2023-02-02T18:19:51;99372.09;;;6.85;82.54
15694;BME280;7947;48.834;9.132;2023-02-02T18:28:32;99385.94;;;6.93;82.26
15694;BME280;7947;48.834;9.132;2023-02-02T18:31:59;99384.06;;;7.00;82.19
15694;BME280;7947;48.834;9.132;2023-02-02T18:35:51;99393.91;;;7.00;82.38
15694;BME280;7947;48.834;9.132;2023-02-02T18:52:48;99381.72;;;6.86;82.96
15694;BME280;7947;48.834;9.132;2023-02-02T18:56:36;99395.28;;;6.84;83.13
15694;BME280;7947;48.834;9.132;2023-02-02T19:00:25;99387.41;;;6.89;82.99
15694;BME280;7947;48.834;9.132;2023-02-02T19:04:06;99402.41;;;6.90;83.09
15694;BME280;7947;48.834;9.132;2023-02-02T19:07:42;99403.13;;;6.79;84.11
15694;BME280;7947;48.834;9.132;2023-02-02T19:12:01;99407.56;;;6.85;83.10
15694;BME280;7947;48.834;9.132;2023-02-02T19:15:55;99404.88;;;6.85;83.47
15694;BME280;7947;48.834;9.132;2023-02-02T19:19:22;99405.28;;;6.89;83.02
15694;BME280;7947;48.834;9.132;2023-02-02T19:22:41;99403.66;;;6.88;82.64
15694;BME280;7947;48.834;9.132;2023-02-02T19:25:51;99410.81;;;6.87;83.03
15694;BME280;7947;48.834;9.132;2023-02-02T19:29:16;99406.09;;;6.89;82.72
15694;BME280;7947;48.834;9.132;2023-02-02T19:32:50;99403.22;;;6.91;81.98
15694;BME280;7947;48.834;9.132;2023-02-02T19:36:21;99413.44;;;6.94;81.71
15694;BME280;7947;48.834;9.132;2023-02-02T19:39:36;99420.19;;;6.96;81.03
15694;BME280;7947;48.834;9.132;2023-02-02T19:43:22;99409.75;;;6.95;81.25
15694;BME280;7947;48.834;9.132;2023-02-02T19:47:29;99408.09;;;6.94;81.11
15694;BME280;7947;48.834;9.132;2023-02-02T20:04:41;99404.97;;;6.97;80.60
15694;BME280;7947;48.834;9.132;2023-02-02T20:08:29;99406.19;;;7.01;80.27
15694;BME280;7947;48.834;9.132;2023-02-02T20:12:47;99404.94;;;7.03;80.54
15694;BME280;7947;48.834;9.132;2023-02-02T20:16:36;99404.63;;;6.93;80.78
15694;BME280;7947;48.834;9.132;2023-02-02T20:33:28;99384.94;;;6.94;81.17
15694;BME280;7947;48.834;9.132;2023-02-02T20:37:24;99378.63;;;6.89;81.68
15694;BME280;7947;48.834;9.132;2023-02-02T20:45:58;99373.72;;;6.86;82.14
15694;BME280;7947;48.834;9.132;2023-02-02T21:01:59;99405.47;;;6.69;83.85
15694;BME280;7947;48.834;9.132;2023-02-02T21:06:34;99406.34;;;6.63;83.76
15694;BME280;7947;48.834;9.132;2023-02-02T21:15:25;99404.03;;;6.67;83.07
15694;BME280;7947;48.834;9.132;2023-02-02T21:32:39;99405.25;;;6.71;83.02
15694;BME280;7947;48.834;9.132;2023-02-02T21:36:49;99413.69;;;6.68;82.71
15694;BME280;7947;48.834;9.132;2023-02-02T21:40:37;99416.78;;;6.65;82.91
15694;BME280;7947;48.834;9.132;2023-02-02T21:44:47;99409.94;;;6.75;82.77
15694;BME280;7947;48.834;9.132;2023-02-02T21:49:12;99413.25;;;6.71;81.75
15694;BME280;7947;48.834;9.132;2023-02-02T21:56:58;99412.63;;;6.69;82.62
15694;BME280;7947;48.834;9.132;2023-02-02T22:01:01;99410.47;;;6.59;82.66
15694;BME280;7947;48.834;9.132;2023-02-02T22:04:56;99406.16;;;6.58;83.18
15694;BME280;7947;48.834;9.132;2023-02-02T22:08:19;99403.69;;;6.63;82.90
15694;BME280;7947;48.834;9.132;2023-02-02T22:11:46;99408.56;;;6.66;81.86
15694;BME280;7947;48.834;9.132;2023-02-02T22:24:07;99414.22;;;6.76;81.37
15694;BME280;7947;48.834;9.132;2023-02-02T22:28:35;99407.03;;;6.77;81.18
15694;BME280;7947;48.834;9.132;2023-02-02T22:32:17;99412.09;;;6.85;81.17
15694;BME280;7947;48.834;9.132;2023-02-02T22:35:41;99404.28;;;6.83;81.07
15694;BME280;7947;48.834;9.132;2023-02-02T22:39:32;99399.41;;;6.80;80.92
15694;BME280;7947;48.834;9.132;2023-02-02T22:47:40;99401.44;;;6.85;81.20
15694;BME280;7947;48.834;9.132;2023-02-02T22:51:17;99396.47;;;6.88;80.97
15694;BME280;7947;48.834;9.132;2023-02-02T22:55:33;99402.22;;;6.85;80.64
15694;BME280;7947;48.834;9.132;2023-02-02T22:59:12;99403.72;;;6.81;81.44
15694;BME280;7947;48.834;9.132;2023-02-02T23:02:23;99403.41;;;6.89;80.69
15694;BME280;7947;48.834;9.132;2023-02-02T23:05:40;99407.97;;;6.89;81.15
15694;BME280;7947;48.834;9.132;2023-02-02T23:08:58;99410.22;;;6.85;82.18
15694;BME280;7947;48.834;9.132;2023-02-02T23:12:25;99412.16;;;6.78;82.91
15694;BME280;7947;48.834;9.132;2023-02-02T23:19:22;99434.19;;;6.67;84.38
15694;BME280;7947;48.834;9.132;2023-02-02T23:22:43;99442.59;;;6.64;84.37
15694;BME280;7947;48.834;9.132;2023-02-02T23:26:16;99456.97;;;6.63;84.46
15694;BME280;7947;48.834;9.132;2023-02-02T23:30:06;99460.84;;;6.67;83.78
15694;BME280;7947;48.834;9.132;2023-02-02T23:33:18;99455.06;;;6.70;84.04
15694;BME280;7947;48.834;9.132;2023-02-02T23:36:33;99464.53;;;6.66;84.28
15694;BME280;7947;48.834;9.132;2023-02-02T23:39:44;99466.78;;;6.69;84.04
15694;BME280;7947;48.834;9.132;2023-02-02T23:43:23;99463.88;;;6.71;83.96
15694;BME280;7947;48.834;9.132;2023-02-02T23:46:48;99465.31;;;6.73;83.43
15694;BME280;7947;48.834;9.132;2023-02-02T23:50:24;99455.28;;;6.69;83.74
15694;BME280;7947;48.834;9.132;2023-02-02T23:53:47;99452.47;;;6.64;83.92
15694;BME280;7947;48.834;9.132;2023-02-02T23:57:25;99450.06;;;6.56;84.31
